sensor_id;sensor_type;location;lat;lon;timestamp;noise_LAeq;noise_LA_min;noise_LA_max;noise_LA01;noise_LA95
72276;Laerm;61204;49.980;8.358;2023-04-04T00:00:28;44.67;39.79;50.33;;
72276;Laerm;61204;49.980;8.358;2023-04-04T00:02:54;45.82;39.85;59.30;;
72276;Laerm;61204;49.980;8.358;2023-04-04T00:05:19;44.08;38.95;50.28;;
72276;Laerm;61204;49.980;8.358;2023-04-04T00:07:48;44.58;39.81;53.13;;
72276;Laerm;61204;49.980;8.358;2023-04-04T00:10:14;44.93;38.89;63.07;;
72276;Laerm;61204;49.980;8.358;2023-04-04T00:12:41;46.53;39.06;59.94;;
72276;Laerm;61204;49.980;8.358;2023-04-04T00:15:07;45.19;40.59;50.97;;
72276;Laerm;61204;49.980;8.358;2023-04-04T00:17:32;43.92;38.36;53.99;;
72276;Laerm;61204;49.980;8.358;2023-04-04T00:19:58;43.30;39.13;50.10;;
72276;Laerm;61204;49.980;8.358;2023-04-04T00:22:23;43.96;38.36;49.49;;
72276;Laerm;61204;49.980;8.358;2023-04-04T00:24:49;44.56;39.00;55.47;;
72276;Laerm;61204;49.980;8.358;2023-04-04T00:27:14;45.62;40.19;55.15;;
72276;Laerm;61204;49.980;8.358;2023-04-04T00:29:40;46.74;40.66;57.29;;
72276;Laerm;61204;49.980;8.358;2023-04-04T00:32:05;45.81;41.35;58.81;;
72276;Laerm;61204;49.980;8.358;2023-04-04T00:34:33;44.81;39.02;52.98;;
72276;Laerm;61204;49.980;8.358;2023-04-04T00:37:02;47.06;40.55;53.19;;
72276;Laerm;61204;49.980;8.358;2023-04-04T00:39:32;46.10;39.28;52.08;;
72276;Laerm;61204;49.980;8.358;2023-04-04T00:41:57;45.02;39.83;62.15;;
72276;Laerm;61204;49.980;8.358;2023-04-04T00:44:23;44.80;40.35;52.30;;
72276;Laerm;61204;49.980;8.358;2023-04-04T00:46:55;45.18;39.01;55.27;;
72276;Laerm;61204;49.980;8.358;2023-04-04T00:49:23;44.22;39.64;51.64;;
72276;Laerm;61204;49.980;8.358;2023-04-04T00:51:48;47.93;39.00;56.94;;
72276;Laerm;61204;49.980;8.358;2023-04-04T00:54:13;43.68;38.45;57.16;;
72276;Laerm;61204;49.980;8.358;2023-04-04T00:56:39;44.71;39.27;53.48;;
72276;Laerm;61204;49.980;8.358;2023-04-04T00:59:05;43.13;38.05;51.49;;
72276;Laerm;61204;49.980;8.358;2023-04-04T01:01:31;45.47;38.81;58.54;;
72276;Laerm;61204;49.980;8.358;2023-04-04T01:03:57;45.31;39.99;51.13;;
72276;Laerm;61204;49.980;8.358;2023-04-04T01:06:23;45.47;40.65;56.18;;
72276;Laerm;61204;49.980;8.358;2023-04-04T01:08:50;46.81;40.51;60.38;;
72276;Laerm;61204;49.980;8.358;2023-04-04T01:11:16;44.14;39.08;52.18;;
72276;Laerm;61204;49.980;8.358;2023-04-04T01:13:43;44.06;39.70;51.10;;
72276;Laerm;61204;49.980;8.358;2023-04-04T01:16:08;43.77;39.33;49.68;;
72276;Laerm;61204;49.980;8.358;2023-04-04T01:18:35;45.58;40.31;55.82;;
72276;Laerm;61204;49.980;8.358;2023-04-04T01:21:08;43.72;39.31;50.50;;
72276;Laerm;61204;49.980;8.358;2023-04-04T01:26:21;45.12;40.39;52.58;;
72276;Laerm;61204;49.980;8.358;2023-04-04T01:28:48;45.96;41.14;50.92;;
72276;Laerm;61204;49.980;8.358;2023-04-04T01:31:41;44.75;39.14;49.05;;
72276;Laerm;61204;49.980;8.358;2023-04-04T01:34:34;43.99;39.33;51.11;;
72276;Laerm;61204;49.980;8.358;2023-04-04T01:37:25;43.68;38.78;55.94;;
72276;Laerm;61204;49.980;8.358;2023-04-04T01:40:05;45.48;40.62;54.15;;
72276;Laerm;61204;49.980;8.358;2023-04-04T01:42:33;47.60;41.41;58.60;;
72276;Laerm;61204;49.980;8.358;2023-04-04T01:45:00;45.10;39.86;53.36;;
72276;Laerm;61204;49.980;8.358;2023-04-04T01:47:26;44.85;40.68;55.14;;
72276;Laerm;61204;49.980;8.358;2023-04-04T01:49:51;45.90;42.04;60.84;;
72276;Laerm;61204;49.980;8.358;2023-04-04T01:52:18;45.78;41.33;52.76;;
72276;Laerm;61204;49.980;8.358;2023-04-04T01:54:43;44.79;39.77;51.44;;
72276;Laerm;61204;49.980;8.358;2023-04-04T01:57:09;43.85;39.41;52.88;;
72276;Laerm;61204;49.980;8.358;2023-04-04T01:59:34;44.91;39.94;51.65;;
72276;Laerm;61204;49.980;8.358;2023-04-04T02:02:03;44.45;39.06;64.06;;
72276;Laerm;61204;49.980;8.358;2023-04-04T02:04:31;45.02;39.38;59.76;;
72276;Laerm;61204;49.980;8.358;2023-04-04T02:06:56;46.72;40.48;55.09;;
72276;Laerm;61204;49.980;8.358;2023-04-04T02:09:22;45.33;39.83;58.08;;
72276;Laerm;61204;49.980;8.358;2023-04-04T02:11:48;45.26;40.37;52.86;;
72276;Laerm;61204;49.980;8.358;2023-04-04T02:14:13;49.49;41.62;61.73;;
72276;Laerm;61204;49.980;8.358;2023-04-04T02:16:39;45.71;40.78;52.36;;
72276;Laerm;61204;49.980;8.358;2023-04-04T02:19:04;46.27;38.96;58.18;;
72276;Laerm;61204;49.980;8.358;2023-04-04T02:21:30;45.02;39.91;61.10;;
72276;Laerm;61204;49.980;8.358;2023-04-04T02:23:55;45.80;40.64;55.92;;
72276;Laerm;61204;49.980;8.358;2023-04-04T02:26:20;46.40;41.47;59.07;;
72276;Laerm;61204;49.980;8.358;2023-04-04T02:28:46;48.08;42.52;55.54;;
72276;Laerm;61204;49.980;8.358;2023-04-04T02:31:12;48.80;43.81;56.90;;
72276;Laerm;61204;49.980;8.358;2023-04-04T02:33:37;48.39;43.50;56.92;;
72276;Laerm;61204;49.980;8.358;2023-04-04T02:36:05;47.58;42.23;58.20;;
72276;Laerm;61204;49.980;8.358;2023-04-04T02:38:30;48.00;41.37;65.86;;
72276;Laerm;61204;49.980;8.358;2023-04-04T02:40:56;47.21;42.65;59.57;;
72276;Laerm;61204;49.980;8.358;2023-04-04T02:43:21;48.52;43.77;58.78;;
72276;Laerm;61204;49.980;8.358;2023-04-04T02:45:47;45.05;39.31;60.88;;
72276;Laerm;61204;49.980;8.358;2023-04-04T02:48:13;48.95;41.32;60.18;;
72276;Laerm;61204;49.980;8.358;2023-04-04T02:50:38;51.96;42.67;63.69;;
72276;Laerm;61204;49.980;8.358;2023-04-04T02:53:04;47.53;42.97;55.85;;
72276;Laerm;61204;49.980;8.358;2023-04-04T02:55:30;46.23;41.85;54.05;;
72276;Laerm;61204;49.980;8.358;2023-04-04T02:57:57;47.75;42.16;55.72;;
72276;Laerm;61204;49.980;8.358;2023-04-04T03:00:26;47.60;42.59;58.07;;
72276;Laerm;61204;49.980;8.358;2023-04-04T03:02:56;47.83;43.46;53.93;;
72276;Laerm;61204;49.980;8.358;2023-04-04T03:05:25;50.69;43.67;64.41;;
72276;Laerm;61204;49.980;8.358;2023-04-04T03:07:56;57.23;45.26;68.84;;
72276;Laerm;61204;49.980;8.358;2023-04-04T03:10:27;54.01;45.67;64.20;;
72276;Laerm;61204;49.980;8.358;2023-04-04T03:12:56;56.81;45.31;66.61;;
72276;Laerm;61204;49.980;8.358;2023-04-04T03:15:23;56.32;45.15;64.76;;
72276;Laerm;61204;49.980;8.358;2023-04-04T03:17:49;57.34;46.37;68.32;;
72276;Laerm;61204;49.980;8.358;2023-04-04T03:20:14;57.45;44.69;67.13;;
72276;Laerm;61204;49.980;8.358;2023-04-04T03:22:41;49.13;44.96;55.29;;
72276;Laerm;61204;49.980;8.358;2023-04-04T03:25:07;48.88;43.08;67.12;;
72276;Laerm;61204;49.980;8.358;2023-04-04T03:27:33;48.61;43.32;57.81;;
72276;Laerm;61204;49.980;8.358;2023-04-04T03:29:59;59.80;45.79;70.62;;
72276;Laerm;61204;49.980;8.358;2023-04-04T03:32:25;50.75;45.58;58.88;;
72276;Laerm;61204;49.980;8.358;2023-04-04T03:34:51;55.81;45.69;66.77;;
72276;Laerm;61204;49.980;8.358;2023-04-04T03:37:19;57.84;47.54;68.14;;
72276;Laerm;61204;49.980;8.358;2023-04-04T03:39:45;54.97;45.29;64.07;;
72276;Laerm;61204;49.980;8.358;2023-04-04T03:42:10;57.02;46.14;68.19;;
72276;Laerm;61204;49.980;8.358;2023-04-04T03:44:40;57.35;46.81;66.50;;
72276;Laerm;61204;49.980;8.358;2023-04-04T03:47:08;51.96;45.59;63.16;;
72276;Laerm;61204;49.980;8.358;2023-04-04T03:49:34;50.85;44.96;61.53;;
72276;Laerm;61204;49.980;8.358;2023-04-04T03:51:59;50.92;44.57;64.17;;
72276;Laerm;61204;49.980;8.358;2023-04-04T03:54:27;51.44;45.59;59.87;;
72276;Laerm;61204;49.980;8.358;2023-04-04T03:56:54;51.15;45.41;59.94;;
72276;Laerm;61204;49.980;8.358;2023-04-04T03:59:20;52.62;46.96;63.25;;
72276;Laerm;61204;49.980;8.358;2023-04-04T04:01:47;52.29;45.70;63.24;;
72276;Laerm;61204;49.980;8.358;2023-04-04T04:04:17;53.74;47.33;62.82;;
72276;Laerm;61204;49.980;8.358;2023-04-04T04:06:43;56.62;47.23;66.21;;
72276;Laerm;61204;49.980;8.358;2023-04-04T04:09:09;57.54;48.80;66.45;;
72276;Laerm;61204;49.980;8.358;2023-04-04T04:11:36;56.07;45.14;68.55;;
72276;Laerm;61204;49.980;8.358;2023-04-04T04:14:02;53.87;47.74;62.46;;
72276;Laerm;61204;49.980;8.358;2023-04-04T04:16:30;54.65;47.27;64.49;;
72276;Laerm;61204;49.980;8.358;2023-04-04T04:18:55;57.95;46.71;67.52;;
72276;Laerm;61204;49.980;8.358;2023-04-04T04:21:20;54.11;47.16;64.77;;
72276;Laerm;61204;49.980;8.358;2023-04-04T04:23:48;53.67;47.02;67.64;;
72276;Laerm;61204;49.980;8.358;2023-04-04T04:26:14;54.40;47.33;66.99;;
72276;Laerm;61204;49.980;8.358;2023-04-04T04:28:39;53.78;47.61;65.23;;
72276;Laerm;61204;49.980;8.358;2023-04-04T04:31:11;53.85;47.69;63.69;;
72276;Laerm;61204;49.980;8.358;2023-04-04T04:33:36;54.86;48.49;66.58;;
72276;Laerm;61204;49.980;8.358;2023-04-04T04:36:03;55.98;48.36;65.18;;
72276;Laerm;61204;49.980;8.358;2023-04-04T04:38:30;59.62;47.87;71.05;;
72276;Laerm;61204;49.980;8.358;2023-04-04T04:40:56;58.50;48.78;69.72;;
72276;Laerm;61204;49.980;8.358;2023-04-04T04:43:22;59.20;49.12;68.72;;
72276;Laerm;61204;49.980;8.358;2023-04-04T04:45:48;55.39;48.85;64.03;;
72276;Laerm;61204;49.980;8.358;2023-04-04T04:48:14;58.43;48.49;68.25;;
72276;Laerm;61204;49.980;8.358;2023-04-04T04:50:46;59.31;48.37;71.25;;
72276;Laerm;61204;49.980;8.358;2023-04-04T04:53:13;61.17;49.39;71.28;;
72276;Laerm;61204;49.980;8.358;2023-04-04T04:55:39;58.91;48.11;70.23;;
72276;Laerm;61204;49.980;8.358;2023-04-04T04:58:04;57.66;49.05;70.64;;
72276;Laerm;61204;49.980;8.358;2023-04-04T05:00:35;57.92;48.67;67.54;;
72276;Laerm;61204;49.980;8.358;2023-04-04T05:03:02;55.75;46.66;63.76;;
72276;Laerm;61204;49.980;8.358;2023-04-04T05:05:32;57.77;48.25;71.32;;
72276;Laerm;61204;49.980;8.358;2023-04-04T05:08:00;58.48;48.75;71.00;;
72276;Laerm;61204;49.980;8.358;2023-04-04T05:10:25;57.52;47.73;68.84;;
72276;Laerm;61204;49.980;8.358;2023-04-04T05:12:51;55.42;47.21;66.10;;
72276;Laerm;61204;49.980;8.358;2023-04-04T05:15:16;54.40;47.36;70.61;;
72276;Laerm;61204;49.980;8.358;2023-04-04T05:17:42;60.27;47.14;70.14;;
72276;Laerm;61204;49.980;8.358;2023-04-04T05:20:08;51.61;45.97;59.74;;
72276;Laerm;61204;49.980;8.358;2023-04-04T05:22:34;59.67;48.43;69.53;;
72276;Laerm;61204;49.980;8.358;2023-04-04T05:25:02;55.43;46.52;65.51;;
72276;Laerm;61204;49.980;8.358;2023-04-04T05:27:29;58.22;47.10;70.24;;
72276;Laerm;61204;49.980;8.358;2023-04-04T05:29:55;55.40;49.07;67.10;;
72276;Laerm;61204;49.980;8.358;2023-04-04T05:32:21;55.36;47.62;64.11;;
72276;Laerm;61204;49.980;8.358;2023-04-04T05:34:47;59.23;47.39;71.25;;
72276;Laerm;61204;49.980;8.358;2023-04-04T05:37:12;54.53;47.46;64.93;;
72276;Laerm;61204;49.980;8.358;2023-04-04T05:39:40;56.79;47.54;68.45;;
72276;Laerm;61204;49.980;8.358;2023-04-04T05:42:06;54.89;46.97;62.73;;
72276;Laerm;61204;49.980;8.358;2023-04-04T05:44:31;56.03;48.35;65.17;;
72276;Laerm;61204;49.980;8.358;2023-04-04T05:46:57;57.66;46.89;69.65;;
72276;Laerm;61204;49.980;8.358;2023-04-04T05:49:22;54.81;46.38;65.05;;
72276;Laerm;61204;49.980;8.358;2023-04-04T05:51:52;59.18;47.60;69.71;;
72276;Laerm;61204;49.980;8.358;2023-04-04T05:54:21;51.42;47.09;67.43;;
72276;Laerm;61204;49.980;8.358;2023-04-04T05:56:48;54.37;47.88;63.81;;
72276;Laerm;61204;49.980;8.358;2023-04-04T05:59:14;55.27;46.86;65.02;;
72276;Laerm;61204;49.980;8.358;2023-04-04T06:01:40;54.86;46.38;64.42;;
72276;Laerm;61204;49.980;8.358;2023-04-04T06:04:06;55.02;46.77;65.53;;
72276;Laerm;61204;49.980;8.358;2023-04-04T06:06:33;56.92;47.61;67.00;;
72276;Laerm;61204;49.980;8.358;2023-04-04T06:08:58;54.84;46.39;64.37;;
72276;Laerm;61204;49.980;8.358;2023-04-04T06:11:24;50.46;45.42;57.84;;
72276;Laerm;61204;49.980;8.358;2023-04-04T06:13:50;57.16;45.29;70.76;;
72276;Laerm;61204;49.980;8.358;2023-04-04T06:16:17;51.61;45.91;63.58;;
72276;Laerm;61204;49.980;8.358;2023-04-04T06:18:43;60.15;46.26;70.50;;
72276;Laerm;61204;49.980;8.358;2023-04-04T06:21:08;55.07;45.94;65.76;;
72276;Laerm;61204;49.980;8.358;2023-04-04T06:23:34;59.72;46.73;69.16;;
72276;Laerm;61204;49.980;8.358;2023-04-04T06:26:02;56.35;45.53;67.05;;
72276;Laerm;61204;49.980;8.358;2023-04-04T06:28:27;58.05;45.76;68.74;;
72276;Laerm;61204;49.980;8.358;2023-04-04T06:30:55;57.91;45.79;69.30;;
72276;Laerm;61204;49.980;8.358;2023-04-04T06:33:20;60.28;47.30;70.91;;
72276;Laerm;61204;49.980;8.358;2023-04-04T06:35:46;54.80;45.26;63.58;;
72276;Laerm;61204;49.980;8.358;2023-04-04T06:38:12;54.23;45.68;64.43;;
72276;Laerm;61204;49.980;8.358;2023-04-04T06:40:40;56.10;44.83;68.25;;
72276;Laerm;61204;49.980;8.358;2023-04-04T06:43:06;55.12;44.57;65.20;;
72276;Laerm;61204;49.980;8.358;2023-04-04T06:45:33;55.26;45.65;65.59;;
72276;Laerm;61204;49.980;8.358;2023-04-04T06:48:02;54.52;44.45;66.83;;
72276;Laerm;61204;49.980;8.358;2023-04-04T06:50:29;56.99;45.10;69.86;;
72276;Laerm;61204;49.980;8.358;2023-04-04T06:52:56;55.42;43.81;65.95;;
72276;Laerm;61204;49.980;8.358;2023-04-04T06:55:22;52.60;45.38;63.92;;
72276;Laerm;61204;49.980;8.358;2023-04-04T06:57:47;60.46;46.67;72.36;;
72276;Laerm;61204;49.980;8.358;2023-04-04T07:00:16;55.18;46.97;64.14;;
72276;Laerm;61204;49.980;8.358;2023-04-04T07:02:44;57.12;45.58;67.34;;
72276;Laerm;61204;49.980;8.358;2023-04-04T07:05:10;57.77;45.27;70.78;;
72276;Laerm;61204;49.980;8.358;2023-04-04T07:07:36;57.21;45.95;69.23;;
72276;Laerm;61204;49.980;8.358;2023-04-04T07:10:07;56.98;45.93;75.03;;
72276;Laerm;61204;49.980;8.358;2023-04-04T07:12:35;52.90;44.81;65.96;;
72276;Laerm;61204;49.980;8.358;2023-04-04T07:15:00;59.73;46.56;71.39;;
72276;Laerm;61204;49.980;8.358;2023-04-04T07:17:26;57.93;42.61;69.62;;
72276;Laerm;61204;49.980;8.358;2023-04-04T07:19:51;56.30;44.62;70.35;;
72276;Laerm;61204;49.980;8.358;2023-04-04T07:22:17;54.32;43.62;66.27;;
72276;Laerm;61204;49.980;8.358;2023-04-04T07:24:42;60.59;44.10;74.98;;
72276;Laerm;61204;49.980;8.358;2023-04-04T07:27:08;54.92;44.39;66.60;;
72276;Laerm;61204;49.980;8.358;2023-04-04T07:29:33;49.22;43.54;57.46;;
72276;Laerm;61204;49.980;8.358;2023-04-04T07:31:59;55.58;44.73;69.38;;
72276;Laerm;61204;49.980;8.358;2023-04-04T07:34:25;56.32;44.50;67.43;;
72276;Laerm;61204;49.980;8.358;2023-04-04T07:36:51;53.69;43.07;63.69;;
72276;Laerm;61204;49.980;8.358;2023-04-04T07:39:18;57.57;46.43;70.44;;
72276;Laerm;61204;49.980;8.358;2023-04-04T07:41:43;57.83;46.37;75.51;;
72276;Laerm;61204;49.980;8.358;2023-04-04T07:44:08;53.19;47.24;65.99;;
72276;Laerm;61204;49.980;8.358;2023-04-04T07:46:34;59.40;45.08;73.81;;
72276;Laerm;61204;49.980;8.358;2023-04-04T07:48:59;54.89;44.36;66.88;;
72276;Laerm;61204;49.980;8.358;2023-04-04T07:51:25;52.21;47.09;70.09;;
72276;Laerm;61204;49.980;8.358;2023-04-04T07:53:55;56.03;48.63;69.31;;
72276;Laerm;61204;49.980;8.358;2023-04-04T07:56:21;51.74;45.78;60.55;;
72276;Laerm;61204;49.980;8.358;2023-04-04T07:58:49;55.20;45.63;69.03;;
72276;Laerm;61204;49.980;8.358;2023-04-04T08:01:14;54.24;43.66;66.31;;
72276;Laerm;61204;49.980;8.358;2023-04-04T08:03:40;54.53;45.19;67.22;;
72276;Laerm;61204;49.980;8.358;2023-04-04T08:06:06;52.86;45.65;62.43;;
72276;Laerm;61204;49.980;8.358;2023-04-04T08:08:31;62.16;46.16;75.02;;
72276;Laerm;61204;49.980;8.358;2023-04-04T08:10:57;61.07;45.04;77.84;;
72276;Laerm;61204;49.980;8.358;2023-04-04T08:13:22;55.12;45.57;74.69;;
72276;Laerm;61204;49.980;8.358;2023-04-04T08:15:48;59.84;46.53;71.87;;
72276;Laerm;61204;49.980;8.358;2023-04-04T08:18:13;51.54;45.21;61.97;;
72276;Laerm;61204;49.980;8.358;2023-04-04T08:20:40;53.53;44.82;66.60;;
72276;Laerm;61204;49.980;8.358;2023-04-04T08:23:07;59.46;46.84;71.90;;
72276;Laerm;61204;49.980;8.358;2023-04-04T08:25:34;55.53;49.25;65.54;;
72276;Laerm;61204;49.980;8.358;2023-04-04T08:28:00;55.27;44.86;70.53;;
72276;Laerm;61204;49.980;8.358;2023-04-04T08:30:25;50.24;43.87;62.25;;
72276;Laerm;61204;49.980;8.358;2023-04-04T08:32:53;51.31;45.17;64.43;;
72276;Laerm;61204;49.980;8.358;2023-04-04T08:35:19;51.28;44.60;75.82;;
72276;Laerm;61204;49.980;8.358;2023-04-04T08:37:45;52.15;45.15;76.42;;
72276;Laerm;61204;49.980;8.358;2023-04-04T08:40:10;54.04;45.04;71.46;;
72276;Laerm;61204;49.980;8.358;2023-04-04T08:42:40;51.84;45.95;65.92;;
72276;Laerm;61204;49.980;8.358;2023-04-04T08:45:09;53.63;45.96;77.80;;
72276;Laerm;61204;49.980;8.358;2023-04-04T08:47:39;58.10;44.69;75.37;;
72276;Laerm;61204;49.980;8.358;2023-04-04T08:50:06;56.06;44.56;68.13;;
72276;Laerm;61204;49.980;8.358;2023-04-04T08:52:34;55.35;44.84;72.92;;
72276;Laerm;61204;49.980;8.358;2023-04-04T08:55:03;53.97;44.10;67.46;;
72276;Laerm;61204;49.980;8.358;2023-04-04T08:57:29;51.95;44.48;74.11;;
72276;Laerm;61204;49.980;8.358;2023-04-04T08:59:55;50.94;43.93;64.69;;
72276;Laerm;61204;49.980;8.358;2023-04-04T09:03:20;52.56;43.56;66.66;;
72276;Laerm;61204;49.980;8.358;2023-04-04T09:05:51;48.97;43.20;64.51;;
72276;Laerm;61204;49.980;8.358;2023-04-04T09:08:20;50.83;43.98;61.37;;
72276;Laerm;61204;49.980;8.358;2023-04-04T09:10:50;48.35;42.11;66.11;;
72276;Laerm;61204;49.980;8.358;2023-04-04T09:13:16;47.89;42.93;62.93;;
72276;Laerm;61204;49.980;8.358;2023-04-04T09:15:51;59.45;42.73;77.14;;
72276;Laerm;61204;49.980;8.358;2023-04-04T09:18:18;51.12;41.67;67.80;;
72276;Laerm;61204;49.980;8.358;2023-04-04T09:20:46;54.04;42.34;67.38;;
72276;Laerm;61204;49.980;8.358;2023-04-04T09:23:17;51.69;40.62;66.33;;
72276;Laerm;61204;49.980;8.358;2023-04-04T09:25:50;50.46;41.83;65.30;;
72276;Laerm;61204;49.980;8.358;2023-04-04T09:28:17;57.35;39.91;74.30;;
72276;Laerm;61204;49.980;8.358;2023-04-04T09:30:46;55.61;41.94;68.96;;
72276;Laerm;61204;49.980;8.358;2023-04-04T09:33:15;54.43;40.81;68.79;;
72276;Laerm;61204;49.980;8.358;2023-04-04T09:35:46;54.40;42.21;69.09;;
72276;Laerm;61204;49.980;8.358;2023-04-04T09:38:14;59.15;44.83;73.96;;
72276;Laerm;61204;49.980;8.358;2023-04-04T09:40:41;55.55;43.83;71.95;;
72276;Laerm;61204;49.980;8.358;2023-04-04T09:43:07;51.69;43.62;62.51;;
72276;Laerm;61204;49.980;8.358;2023-04-04T09:45:35;55.01;43.59;71.30;;
72276;Laerm;61204;49.980;8.358;2023-04-04T09:48:01;54.03;43.54;65.41;;
72276;Laerm;61204;49.980;8.358;2023-04-04T09:50:27;57.15;45.23;74.78;;
72276;Laerm;61204;49.980;8.358;2023-04-04T09:52:58;54.34;43.12;66.52;;
72276;Laerm;61204;49.980;8.358;2023-04-04T09:55:32;53.32;42.82;64.53;;
72276;Laerm;61204;49.980;8.358;2023-04-04T09:57:58;55.06;42.21;67.67;;
72276;Laerm;61204;49.980;8.358;2023-04-04T10:00:30;53.33;42.75;68.50;;
72276;Laerm;61204;49.980;8.358;2023-04-04T10:02:56;50.70;42.10;64.67;;
72276;Laerm;61204;49.980;8.358;2023-04-04T10:05:24;57.54;46.08;67.84;;
72276;Laerm;61204;49.980;8.358;2023-04-04T10:07:50;57.97;44.05;77.23;;
72276;Laerm;61204;49.980;8.358;2023-04-04T10:10:15;54.40;43.08;67.78;;
72276;Laerm;61204;49.980;8.358;2023-04-04T10:12:44;56.58;42.26;70.73;;
72276;Laerm;61204;49.980;8.358;2023-04-04T10:15:11;48.27;39.56;61.40;;
72276;Laerm;61204;49.980;8.358;2023-04-04T10:17:39;55.88;40.18;70.79;;
72276;Laerm;61204;49.980;8.358;2023-04-04T10:20:07;55.82;41.27;77.93;;
72276;Laerm;61204;49.980;8.358;2023-04-04T10:22:37;47.86;40.28;61.58;;
72276;Laerm;61204;49.980;8.358;2023-04-04T10:25:06;53.65;45.60;68.88;;
72276;Laerm;61204;49.980;8.358;2023-04-04T10:27:34;50.57;43.51;67.16;;
72276;Laerm;61204;49.980;8.358;2023-04-04T10:29:59;54.99;42.99;73.51;;
72276;Laerm;61204;49.980;8.358;2023-04-04T10:35:17;54.17;41.14;68.75;;
72276;Laerm;61204;49.980;8.358;2023-04-04T10:37:56;53.32;41.64;65.41;;
72276;Laerm;61204;49.980;8.358;2023-04-04T10:40:25;53.69;40.51;70.93;;
72276;Laerm;61204;49.980;8.358;2023-04-04T10:42:55;48.48;40.78;59.22;;
72276;Laerm;61204;49.980;8.358;2023-04-04T10:45:22;47.71;39.79;57.79;;
72276;Laerm;61204;49.980;8.358;2023-04-04T10:47:48;53.62;39.64;67.76;;
72276;Laerm;61204;49.980;8.358;2023-04-04T10:50:14;54.28;43.16;72.03;;
72276;Laerm;61204;49.980;8.358;2023-04-04T10:52:43;55.38;42.85;72.96;;
72276;Laerm;61204;49.980;8.358;2023-04-04T10:55:12;54.14;42.66;76.98;;
72276;Laerm;61204;49.980;8.358;2023-04-04T10:57:46;50.66;42.88;61.39;;
72276;Laerm;61204;49.980;8.358;2023-04-04T11:00:19;50.87;41.20;63.85;;
72276;Laerm;61204;49.980;8.358;2023-04-04T11:02:57;53.94;41.84;69.07;;
72276;Laerm;61204;49.980;8.358;2023-04-04T11:05:37;54.34;43.60;67.76;;
72276;Laerm;61204;49.980;8.358;2023-04-04T11:08:15;59.18;44.17;75.64;;
72276;Laerm;61204;49.980;8.358;2023-04-04T11:10:43;52.93;40.29;70.17;;
72276;Laerm;61204;49.980;8.358;2023-04-04T11:13:16;55.58;40.98;69.48;;
72276;Laerm;61204;49.980;8.358;2023-04-04T11:15:51;57.68;43.99;70.18;;
72276;Laerm;61204;49.980;8.358;2023-04-04T11:21:01;54.14;44.63;73.00;;
72276;Laerm;61204;49.980;8.358;2023-04-04T11:23:26;53.22;44.24;66.70;;
72276;Laerm;61204;49.980;8.358;2023-04-04T11:26:05;50.86;40.31;65.31;;
72276;Laerm;61204;49.980;8.358;2023-04-04T11:31:42;44.32;40.36;58.31;;
72276;Laerm;61204;49.980;8.358;2023-04-04T11:34:29;47.79;39.93;59.73;;
72276;Laerm;61204;49.980;8.358;2023-04-04T11:36:55;51.09;41.21;68.07;;
72276;Laerm;61204;49.980;8.358;2023-04-04T11:39:29;52.02;42.46;71.40;;
72276;Laerm;61204;49.980;8.358;2023-04-04T11:42:12;51.82;43.23;72.14;;
72276;Laerm;61204;49.980;8.358;2023-04-04T11:47:21;44.49;38.57;54.48;;
72276;Laerm;61204;49.980;8.358;2023-04-04T11:49:48;48.73;39.93;60.92;;
72276;Laerm;61204;49.980;8.358;2023-04-04T11:52:16;47.84;40.32;55.78;;
72276;Laerm;61204;49.980;8.358;2023-04-04T11:54:44;47.03;40.39;65.67;;
72276;Laerm;61204;49.980;8.358;2023-04-04T11:57:12;49.00;40.22;67.00;;
72276;Laerm;61204;49.980;8.358;2023-04-04T11:59:40;51.33;40.19;63.77;;
72276;Laerm;61204;49.980;8.358;2023-04-04T12:02:08;55.43;40.25;68.09;;
72276;Laerm;61204;49.980;8.358;2023-04-04T12:04:35;52.63;39.26;67.79;;
72276;Laerm;61204;49.980;8.358;2023-04-04T12:07:05;56.97;41.65;77.12;;
72276;Laerm;61204;49.980;8.358;2023-04-04T12:09:33;52.89;42.18;66.85;;
72276;Laerm;61204;49.980;8.358;2023-04-04T12:11:59;48.42;41.39;70.07;;
72276;Laerm;61204;49.980;8.358;2023-04-04T12:14:25;47.30;39.70;57.87;;
72276;Laerm;61204;49.980;8.358;2023-04-04T12:16:54;47.46;39.92;68.16;;
72276;Laerm;61204;49.980;8.358;2023-04-04T12:19:22;58.35;41.09;72.23;;
72276;Laerm;61204;49.980;8.358;2023-04-04T12:21:50;46.25;40.79;60.43;;
72276;Laerm;61204;49.980;8.358;2023-04-04T12:24:17;47.54;41.39;61.85;;
72276;Laerm;61204;49.980;8.358;2023-04-04T12:26:46;50.74;40.79;64.20;;
72276;Laerm;61204;49.980;8.358;2023-04-04T12:29:15;49.53;42.50;61.71;;
72276;Laerm;61204;49.980;8.358;2023-04-04T12:31:44;50.97;43.64;66.97;;
72276;Laerm;61204;49.980;8.358;2023-04-04T12:34:28;53.56;42.83;71.34;;
72276;Laerm;61204;49.980;8.358;2023-04-04T12:36:57;57.14;43.40;70.31;;
72276;Laerm;61204;49.980;8.358;2023-04-04T12:39:27;55.38;42.17;72.88;;
72276;Laerm;61204;49.980;8.358;2023-04-04T12:41:58;48.85;39.78;60.08;;
72276;Laerm;61204;49.980;8.358;2023-04-04T12:44:34;47.70;40.17;57.75;;
72276;Laerm;61204;49.980;8.358;2023-04-04T12:47:03;48.80;41.81;59.37;;
72276;Laerm;61204;49.980;8.358;2023-04-04T12:49:51;54.16;40.52;67.21;;
72276;Laerm;61204;49.980;8.358;2023-04-04T12:52:21;47.76;40.22;58.98;;
72276;Laerm;61204;49.980;8.358;2023-04-04T12:54:49;53.23;41.36;65.78;;
72276;Laerm;61204;49.980;8.358;2023-04-04T12:57:22;56.71;41.96;70.91;;
72276;Laerm;61204;49.980;8.358;2023-04-04T12:59:53;53.82;41.18;66.78;;
72276;Laerm;61204;49.980;8.358;2023-04-04T13:02:21;54.32;41.40;67.69;;
72276;Laerm;61204;49.980;8.358;2023-04-04T13:04:52;56.38;44.26;78.39;;
72276;Laerm;61204;49.980;8.358;2023-04-04T13:07:32;58.52;42.51;71.96;;
72276;Laerm;61204;49.980;8.358;2023-04-04T13:10:04;54.89;41.33;76.95;;
72276;Laerm;61204;49.980;8.358;2023-04-04T13:12:56;50.36;41.26;65.27;;
72276;Laerm;61204;49.980;8.358;2023-04-04T13:15:46;55.61;43.45;67.69;;
72276;Laerm;61204;49.980;8.358;2023-04-04T13:18:21;50.07;41.00;67.19;;
72276;Laerm;61204;49.980;8.358;2023-04-04T13:20:48;48.06;40.33;64.25;;
72276;Laerm;61204;49.980;8.358;2023-04-04T13:23:17;55.68;42.77;73.83;;
72276;Laerm;61204;49.980;8.358;2023-04-04T13:25:43;53.32;41.95;68.11;;
72276;Laerm;61204;49.980;8.358;2023-04-04T13:28:09;53.65;40.33;66.88;;
72276;Laerm;61204;49.980;8.358;2023-04-04T13:30:38;56.63;41.46;75.09;;
72276;Laerm;61204;49.980;8.358;2023-04-04T13:33:11;53.62;42.77;66.00;;
72276;Laerm;61204;49.980;8.358;2023-04-04T13:35:37;57.19;40.56;66.89;;
72276;Laerm;61204;49.980;8.358;2023-04-04T13:38:03;55.88;42.35;69.68;;
72276;Laerm;61204;49.980;8.358;2023-04-04T13:40:28;56.37;43.32;76.53;;
72276;Laerm;61204;49.980;8.358;2023-04-04T13:42:56;55.23;42.13;66.50;;
72276;Laerm;61204;49.980;8.358;2023-04-04T13:45:21;54.72;42.80;69.66;;
72276;Laerm;61204;49.980;8.358;2023-04-04T13:47:47;54.62;43.50;66.34;;
72276;Laerm;61204;49.980;8.358;2023-04-04T13:50:12;55.38;42.65;66.22;;
72276;Laerm;61204;49.980;8.358;2023-04-04T13:52:38;56.16;42.91;71.31;;
72276;Laerm;61204;49.980;8.358;2023-04-04T13:55:04;51.40;41.70;70.11;;
72276;Laerm;61204;49.980;8.358;2023-04-04T13:57:31;48.14;40.70;57.96;;
72276;Laerm;61204;49.980;8.358;2023-04-04T13:59:56;50.45;42.15;61.46;;
72276;Laerm;61204;49.980;8.358;2023-04-04T14:02:22;54.35;43.10;68.48;;